Pagina principale
METAR-TAF:

METAR-TAF

Aeroporti :

Aeroporto di Viterbo

Viterbo, Italia

latitudine: 42-26N, longitudine: 012-03E, altezza: 300 m

Osservazione

Il bollettino è stato emesso 5 ore e 19 minuti fa, alle 17:55 UTC
Vento 8 kt da ovest/sud-ovest
Temperature 15°C
Umidità 77%
Pressione 1013 hPa
Visibilità 10 km o più
nessuna nube inferiore a 1500 m e nessun cumulonembo

METAR: LIRV 151755Z 24008KT CAVOK 15/11 Q1013 RMK SCT SCT200 MON E SE LIB NC VIS MIN 9999 WIND THR04 ///// KT BLU

Ora: 01:14 (23:14 UTC)

Previsione

Il bollettino è stato emesso 9 ore e 14 minuti fa, alle 14:00 UTC
Previsione valida dal 15 alle 15 UTC al 15 alle 24 UTC
Vento 8 kt da sud
Visibilità 10 km o più
Nubi sparse ad un'altezza di 2500 ft
Temporaneamente
dal 15 alle 15 UTC al 15 alle 18 UTC
Vento 12 kt da ovest

TAF: LIRV 151400Z 1515/1524 18008KT 9999 SCT025 TEMPO 1515/1518 26012KT

Osservazioni e previsioni meteorologiche di più di 4000 aeroporti (messaggi METAR e TAF).

Le stazioni disponibili sono rappresentate dai dischi gialli e rossi sulla carta.

Puntare il mouse per vedere il nome della stazione.

Clicca sopra per visualizzare le osservazioni e previsioni meteorologiche.

Per cambiare la mappa : fare clic sui pulsanti verdi con una croce nera per ingrandire, il pulsante verde con un trattino per diminuire, o sulla freccia verde per le mappe adiacenti.


METAR-TAF: